Time;durP1;ratioP1;P1;durP2;ratioP2;P2;SDS_P1;SDS_P2;PMS_P1;PMS_P2;Temp;Humidity;BMP_temperature;BMP_pressure;BME280_temperature;BME280_humidity;BME280_pressure;Samples;Min_cycle;Max_cycle;Signal;HPM_P1;HPM_P2
2023/01/20 00:00:37;;;;;;;54.10;44.10;;;;;;;-0.55;100.00;100897.47;5073019;28;20046;-82
2023/01/20 00:03:02;;;;;;;56.77;44.30;;;;;;;-0.58;100.00;100897.75;5091354;28;20357;-82
2023/01/20 00:05:28;;;;;;;59.33;46.70;;;;;;;-0.60;100.00;100900.56;5055426;28;20139;-82
2023/01/20 00:07:53;;;;;;;57.03;44.20;;;;;;;-0.62;100.00;100907.00;5088842;28;20540;-82
2023/01/20 00:10:18;;;;;;;54.87;41.27;;;;;;;-0.63;100.00;100916.78;5074839;28;20035;-82
2023/01/20 00:12:44;;;;;;;56.03;42.43;;;;;;;-0.62;100.00;100912.31;5059001;28;20036;-82
2023/01/20 00:15:10;;;;;;;53.40;42.83;;;;;;;-0.60;100.00;100927.19;5089957;28;20084;-82
2023/01/20 00:17:36;;;;;;;55.00;43.17;;;;;;;-0.56;100.00;100922.41;5091741;28;20035;-82
2023/01/20 00:20:02;;;;;;;55.13;44.17;;;;;;;-0.58;100.00;100935.03;5085721;28;20368;-82
2023/01/20 00:22:28;;;;;;;56.50;43.57;;;;;;;-0.60;100.00;100937.81;5089158;28;20300;-82
2023/01/20 00:24:53;;;;;;;51.53;39.97;;;;;;;-0.61;100.00;100929.94;5051611;28;20319;-82
2023/01/20 00:27:18;;;;;;;54.20;39.50;;;;;;;-0.63;100.00;100938.06;5093089;28;20024;-82
2023/01/20 00:29:44;;;;;;;50.10;39.13;;;;;;;-0.66;100.00;100938.34;5070256;28;20090;-82
2023/01/20 00:32:10;;;;;;;46.77;37.60;;;;;;;-0.62;100.00;100938.94;5085069;28;20140;-82
2023/01/20 00:34:35;;;;;;;42.23;35.07;;;;;;;-0.68;100.00;100945.63;5069906;28;20058;-82
2023/01/20 00:37:01;;;;;;;43.77;34.10;;;;;;;-0.67;100.00;100949.97;5090855;28;20281;-88
2023/01/20 00:39:26;;;;;;;40.27;32.13;;;;;;;-0.69;100.00;100949.28;5084255;28;20032;-88
2023/01/20 00:41:52;;;;;;;40.47;32.17;;;;;;;-0.70;100.00;100948.41;5091848;28;20088;-88
2023/01/20 00:44:17;;;;;;;41.97;32.33;;;;;;;-0.71;100.00;100945.91;5090184;28;20028;-88
2023/01/20 00:46:43;;;;;;;42.27;33.77;;;;;;;-0.65;100.00;100958.69;5058254;28;20134;-82
2023/01/20 00:49:09;;;;;;;43.80;34.70;;;;;;;-0.61;100.00;100951.25;5077691;28;21016;-81
2023/01/20 00:51:34;;;;;;;44.53;35.30;;;;;;;-0.66;100.00;100949.00;5090465;28;20040;-82
2023/01/20 00:54:00;;;;;;;46.53;36.53;;;;;;;-0.68;100.00;100950.94;5095959;28;20301;-82
2023/01/20 00:56:25;;;;;;;48.10;36.97;;;;;;;-0.69;100.00;100951.94;5060050;28;20110;-82
2023/01/20 00:58:50;;;;;;;47.93;36.37;;;;;;;-0.73;100.00;100954.03;5089253;28;20463;-82
2023/01/20 01:01:16;;;;;;;50.80;38.17;;;;;;;-0.71;100.00;100956.53;5092293;28;20020;-82
2023/01/20 01:03:43;;;;;;;45.93;35.77;;;;;;;-0.68;100.00;100956.25;5063329;28;20073;-82
2023/01/20 01:06:15;;;;;;;51.73;38.73;;;;;;;-0.68;100.00;100956.25;5072451;28;20027;-82
2023/01/20 01:08:41;;;;;;;51.87;39.83;;;;;;;-0.70;100.00;100958.22;5096877;28;20282;-82
2023/01/20 01:11:07;;;;;;;57.17;41.27;;;;;;;-0.71;100.00;100967.19;5093168;28;20305;-82
2023/01/20 01:13:33;;;;;;;60.50;42.93;;;;;;;-0.71;100.00;100962.72;5085771;28;20274;-88
2023/01/20 01:15:59;;;;;;;59.23;42.67;;;;;;;-0.71;100.00;100965.38;5097384;28;20028;-88
2023/01/20 01:18:24;;;;;;;58.13;41.57;;;;;;;-0.66;100.00;100969.47;5085093;28;20334;-88
2023/01/20 01:20:49;;;;;;;58.53;41.93;;;;;;;-0.70;100.00;100972.38;5079990;28;20410;-88
2023/01/20 01:23:15;;;;;;;59.27;41.97;;;;;;;-0.66;100.00;100980.94;5092440;28;20458;-88
2023/01/20 01:25:40;;;;;;;60.37;43.57;;;;;;;-0.67;100.00;100987.22;5089530;28;20016;-82
2023/01/20 01:28:06;;;;;;;63.37;44.50;;;;;;;-0.64;100.00;100986.13;5093131;28;20479;-82
2023/01/20 01:30:31;;;;;;;65.33;44.50;;;;;;;-0.66;100.00;100983.59;5087310;28;20023;-82
2023/01/20 01:32:57;;;;;;;72.03;47.23;;;;;;;-0.67;100.00;100987.22;5075361;28;20076;-82
2023/01/20 01:35:22;;;;;;;74.30;48.63;;;;;;;-0.68;100.00;100989.06;5091717;28;20364;-82
2023/01/20 01:37:47;;;;;;;74.27;48.27;;;;;;;-0.71;100.00;100984.00;5091605;28;20035;-82
2023/01/20 01:40:13;;;;;;;67.53;46.20;;;;;;;-0.63;100.00;100985.97;5092413;28;20035;-82
2023/01/20 01:42:38;;;;;;;69.10;48.40;;;;;;;-0.66;100.00;100986.25;5088794;28;20535;-82
2023/01/20 01:45:09;;;;;;;71.27;48.13;;;;;;;-0.64;100.00;100997.63;5076700;28;20479;-82
2023/01/20 01:47:45;;;;;;;70.93;47.63;;;;;;;-0.63;100.00;100993.13;5078287;28;20027;-82
2023/01/20 01:50:15;;;;;;;68.50;46.63;;;;;;;-0.61;100.00;100988.50;5094405;28;20285;-82
2023/01/20 01:52:44;;;;;;;66.10;47.97;;;;;;;-0.63;100.00;100990.47;5094450;28;20292;-82
2023/01/20 01:55:10;;;;;;;67.03;47.00;;;;;;;-0.60;100.00;101006.16;5093045;28;20282;-82
2023/01/20 01:57:35;;;;;;;66.20;45.67;;;;;;;-0.59;100.00;101011.34;5090901;28;20289;-83
2023/01/20 02:00:03;;;;;;;69.43;46.13;;;;;;;-0.59;100.00;101003.34;5091177;28;20338;-82
2023/01/20 02:02:28;;;;;;;70.53;45.90;;;;;;;-0.59;100.00;100995.38;5086565;28;20496;-82
2023/01/20 02:04:54;;;;;;;66.53;43.13;;;;;;;-0.56;100.00;100997.78;5077720;28;20318;-82
2023/01/20 02:07:20;;;;;;;60.50;42.27;;;;;;;-0.55;100.00;100999.44;5092037;28;20023;-82
2023/01/20 02:09:46;;;;;;;65.50;43.13;;;;;;;-0.60;100.00;100995.50;5080909;28;20495;-82
2023/01/20 02:12:17;;;;;;;66.57;43.87;;;;;;;-0.60;100.00;100996.38;5092341;28;20343;-82
2023/01/20 02:14:47;;;;;;;63.63;42.57;;;;;;;-0.55;100.00;101001.28;5088349;28;20286;-82
2023/01/20 02:17:27;;;;;;;61.03;41.27;;;;;;;-0.52;100.00;101001.88;5090441;28;20290;-82
2023/01/20 02:20:14;;;;;;;67.40;42.90;;;;;;;-0.54;100.00;100995.00;5093910;28;21220;-82
2023/01/20 02:23:03;;;;;;;63.87;41.43;;;;;;;-0.52;100.00;100995.69;5088569;28;20343;-82
2023/01/20 02:25:50;;;;;;;59.67;40.83;;;;;;;-0.57;100.00;100998.75;5089260;28;20327;-82
2023/01/20 02:28:42;;;;;;;61.13;40.40;;;;;;;-0.56;100.00;100995.13;5090222;28;20306;-82
2023/01/20 02:31:23;;;;;;;66.07;41.77;;;;;;;-0.58;100.00;100982.94;5085711;28;20282;-82
2023/01/20 02:34:15;;;;;;;61.33;41.70;;;;;;;-0.55;100.00;100999.44;5088207;28;20369;-82
2023/01/20 02:36:49;;;;;;;61.70;41.17;;;;;;;-0.58;100.00;100998.91;5087694;28;20804;-82
2023/01/20 02:39:32;;;;;;;59.72;40.72;;;;;;;-0.56;100.00;101004.91;5090391;28;20706;-82
2023/01/20 02:42:09;;;;;;;60.07;41.00;;;;;;;-0.58;100.00;101001.56;5091746;28;20039;-82
2023/01/20 02:44:41;;;;;;;58.37;40.23;;;;;;;-0.62;100.00;101002.81;5086257;28;20377;-82
2023/01/20 02:47:11;;;;;;;62.87;41.43;;;;;;;-0.63;100.00;101001.94;5093943;28;20301;-82
2023/01/20 02:49:43;;;;;;;61.30;40.10;;;;;;;-0.62;100.00;101008.97;5088276;28;20289;-82
2023/01/20 02:52:20;;;;;;;56.83;38.33;;;;;;;-0.61;100.00;101008.00;5078480;28;20338;-82
2023/01/20 02:54:50;;;;;;;58.70;40.03;;;;;;;-0.60;100.00;101011.47;5090318;28;20285;-82
2023/01/20 02:57:23;;;;;;;61.77;39.70;;;;;;;-0.65;100.00;101009.25;5089734;28;20301;-82
2023/01/20 02:59:52;;;;;;;61.47;40.13;;;;;;;-0.64;100.00;101010.06;5086770;28;20281;-82
2023/01/20 03:02:25;;;;;;;56.87;38.63;;;;;;;-0.71;100.00;101010.63;5089184;28;20316;-83
2023/01/20 03:05:00;;;;;;;60.40;39.37;;;;;;;-0.67;100.00;101011.19;5090029;28;20293;-82
2023/01/20 03:07:28;;;;;;;56.65;37.90;;;;;;;-0.69;100.00;101005.16;5084227;28;20296;-82
2023/01/20 03:09:57;;;;;;;52.63;36.03;;;;;;;-0.66;100.00;101012.03;5092523;28;20028;-82
2023/01/20 03:12:28;;;;;;;52.03;35.60;;;;;;;-0.70;100.00;101006.13;5081078;28;20363;-82
2023/01/20 03:14:54;;;;;;;52.33;33.90;;;;;;;-0.73;100.00;101012.56;5094864;28;21193;-82
2023/01/20 03:17:21;;;;;;;55.53;36.27;;;;;;;-0.73;100.00;101017.06;5088044;28;20382;-82
2023/01/20 03:19:46;;;;;;;49.43;34.80;;;;;;;-0.72;100.00;101016.06;5088892;28;20064;-82
2023/01/20 03:22:12;;;;;;;56.70;36.90;;;;;;;-0.80;100.00;101021.19;5090870;28;20785;-81
2023/01/20 03:24:40;;;;;;;55.83;37.03;;;;;;;-0.74;100.00;101016.19;5074085;28;20028;-82
2023/01/20 03:27:05;;;;;;;55.70;37.07;;;;;;;-0.75;100.00;101021.66;5089123;28;20051;-82
2023/01/20 03:29:31;;;;;;;55.07;35.43;;;;;;;-0.75;100.00;101029.63;5075757;28;20313;-82
2023/01/20 03:31:59;;;;;;;53.53;35.27;;;;;;;-0.76;100.00;101036.78;5074183;28;20038;-82
2023/01/20 03:34:28;;;;;;;58.03;36.03;;;;;;;-0.77;100.00;101034.25;5089817;28;20487;-82
2023/01/20 03:36:55;;;;;;;55.83;36.27;;;;;;;-0.75;100.00;101040.28;5093619;28;20706;-88
2023/01/20 03:39:22;;;;;;;59.23;37.53;;;;;;;-0.82;100.00;101042.63;5089775;28;20661;-87
2023/01/20 03:42:06;;;;;;;55.67;37.47;;;;;;;-0.78;100.00;101040.56;5098764;28;21286;-89
2023/01/20 03:44:46;;;;;;;59.07;36.60;;;;;;;-0.81;100.00;101039.00;5090181;28;20278;-88
2023/01/20 03:47:42;;;;;;;60.67;38.47;;;;;;;-0.86;100.00;101042.06;5078469;28;20302;-88
2023/01/20 03:50:32;;;;;;;58.45;38.20;;;;;;;-0.79;100.00;101049.50;5069910;28;20286;-88
2023/01/20 03:53:03;;;;;;;56.63;37.27;;;;;;;-0.79;100.00;101041.53;5069991;28;20020;-88
2023/01/20 03:55:37;;;;;;;59.17;37.57;;;;;;;-0.82;100.00;101042.63;5068677;28;20279;-88
2023/01/20 03:58:31;;;;;;;57.08;37.13;;;;;;;-0.77;100.00;101047.56;5062736;28;20344;-89
2023/01/20 04:00:58;;;;;;;56.80;37.13;;;;;;;-0.80;100.00;101045.16;5066061;28;20136;-88
2023/01/20 04:03:28;;;;;;;60.27;38.23;;;;;;;-0.85;100.00;101046.38;5072516;28;20831;-81
2023/01/20 04:05:57;;;;;;;56.30;37.43;;;;;;;-0.81;100.00;101057.63;5067719;28;20317;-82
2023/01/20 04:08:26;;;;;;;57.50;36.73;;;;;;;-0.80;100.00;101059.31;5055520;28;20351;-82
2023/01/20 04:10:56;;;;;;;56.30;36.67;;;;;;;-0.85;100.00;101051.72;5084024;28;20298;-82
2023/01/20 04:13:22;;;;;;;58.93;37.97;;;;;;;-0.85;100.00;101043.72;5065169;28;20287;-81
2023/01/20 04:15:47;;;;;;;58.30;38.30;;;;;;;-0.81;100.00;101048.81;5051242;28;20298;-82
2023/01/20 04:18:22;;;;;;;56.57;35.97;;;;;;;-0.80;100.00;101053.13;5068726;28;21878;-82
2023/01/20 04:21:00;;;;;;;58.43;38.23;;;;;;;-0.84;100.00;101052.56;5070107;28;20626;-82
2023/01/20 04:23:34;;;;;;;57.10;37.17;;;;;;;-0.88;100.00;101044.00;5067178;28;20308;-82
2023/01/20 04:26:00;;;;;;;26.27;11.93;;;;;;;-0.72;100.00;101048.84;5070738;28;22022;-82
2023/01/20 04:28:25;;;;;;;58.60;37.60;;;;;;;-0.75;100.00;101041.13;5055552;28;20028;-82
2023/01/20 04:30:50;;;;;;;56.00;36.13;;;;;;;-0.76;100.00;101046.56;5075162;28;20173;-82
2023/01/20 04:33:16;;;;;;;58.67;38.83;;;;;;;-0.79;100.00;101041.53;5048171;28;20035;-82
2023/01/20 04:35:41;;;;;;;59.67;39.63;;;;;;;-0.88;100.00;101051.97;5071059;28;20032;-81
2023/01/20 04:38:07;;;;;;;59.90;38.53;;;;;;;-0.83;100.00;101048.91;5074692;28;20020;-82
2023/01/20 04:40:32;;;;;;;62.20;37.80;;;;;;;-0.80;100.00;101042.47;5074618;28;20379;-82
2023/01/20 04:42:57;;;;;;;59.83;39.63;;;;;;;-0.86;100.00;101054.50;5073951;28;20035;-81
2023/01/20 04:45:23;;;;;;;61.30;40.27;;;;;;;-0.85;100.00;101057.03;5060413;28;20070;-82
2023/01/20 04:47:48;;;;;;;61.23;40.53;;;;;;;-0.85;100.00;101057.03;5075148;28;20039;-82
2023/01/20 04:50:15;;;;;;;61.87;39.70;;;;;;;-0.82;100.00;101055.09;5077159;28;20130;-82
2023/01/20 04:52:41;;;;;;;62.40;40.30;;;;;;;-0.87;100.00;101059.00;5075512;28;20027;-82
2023/01/20 04:55:07;;;;;;;65.20;40.97;;;;;;;-0.85;100.00;101051.72;5092156;28;20297;-82
2023/01/20 04:57:36;;;;;;;59.53;39.63;;;;;;;-0.82;100.00;101066.56;5090484;28;20223;-82
2023/01/20 05:00:02;;;;;;;67.17;42.63;;;;;;;-0.86;100.00;101060.69;5058066;28;20294;-82
2023/01/20 05:02:27;;;;;;;64.63;42.70;;;;;;;-0.90;100.00;101072.56;5093513;28;20295;-82
2023/01/20 05:04:52;;;;;;;65.40;45.00;;;;;;;-0.91;100.00;101056.72;5091820;28;20023;-81
2023/01/20 05:07:18;;;;;;;63.53;41.37;;;;;;;-0.94;100.00;101064.97;5057404;28;20042;-82
2023/01/20 05:09:43;;;;;;;57.60;39.37;;;;;;;-0.88;100.00;101067.94;5090536;28;20305;-88
2023/01/20 05:12:08;;;;;;;57.10;40.00;;;;;;;-0.87;100.00;101066.13;5090754;28;20038;-88
2023/01/20 05:14:34;;;;;;;56.37;38.43;;;;;;;-0.95;100.00;101073.91;5087205;28;20081;-89
2023/01/20 05:16:59;;;;;;;57.93;38.70;;;;;;;-0.90;100.00;101069.91;5086527;28;20023;-88
2023/01/20 05:19:24;;;;;;;57.57;38.43;;;;;;;-0.90;100.00;101075.22;5093745;28;20038;-89
2023/01/20 05:21:50;;;;;;;60.40;41.10;;;;;;;-0.90;100.00;101079.69;5095104;28;20058;-89
2023/01/20 05:24:15;;;;;;;59.73;40.57;;;;;;;-0.91;100.00;101080.66;5092660;28;20036;-88
2023/01/20 05:26:40;;;;;;;57.57;38.57;;;;;;;-0.91;100.00;101089.50;5076735;28;20816;-88
2023/01/20 05:29:06;;;;;;;53.50;37.60;;;;;;;-0.86;100.00;101081.97;5094637;28;20193;-87
2023/01/20 05:31:31;;;;;;;51.80;36.77;;;;;;;-0.92;100.00;101082.47;5091906;28;20036;-88
2023/01/20 05:33:57;;;;;;;52.80;36.00;;;;;;;-0.92;100.00;101082.47;5078844;28;20019;-88
2023/01/20 05:36:23;;;;;;;57.17;38.03;;;;;;;-0.93;100.00;101086.09;5097661;28;20391;-88
2023/01/20 05:38:48;;;;;;;53.30;37.40;;;;;;;-0.95;100.00;101079.22;5087174;28;20289;-82
2023/01/20 05:41:14;;;;;;;59.37;38.90;;;;;;;-0.91;100.00;101067.34;5091090;28;20040;-82
2023/01/20 05:43:39;;;;;;;59.87;39.87;;;;;;;-0.92;100.00;101071.84;5092252;28;20079;-82
2023/01/20 05:46:05;;;;;;;58.50;39.67;;;;;;;-0.90;100.00;101075.22;5089734;28;20083;-82
2023/01/20 05:48:30;;;;;;;59.93;40.33;;;;;;;-0.88;100.00;101077.75;5092015;28;20043;-81
2023/01/20 05:50:56;;;;;;;60.20;40.13;;;;;;;-0.87;100.00;101076.75;5079767;28;20027;-89
2023/01/20 05:53:21;;;;;;;60.20;40.93;;;;;;;-0.88;100.00;101083.06;5072549;28;20032;-89
2023/01/20 05:55:47;;;;;;;61.37;42.33;;;;;;;-0.83;100.00;101072.84;5097145;28;20028;-88
2023/01/20 05:58:13;;;;;;;59.67;42.63;;;;;;;-0.83;100.00;101085.31;5087295;28;20034;-88
2023/01/20 06:00:39;;;;;;;67.00;41.83;;;;;;;-0.89;100.00;101074.22;5093734;28;20164;-87
2023/01/20 06:03:04;;;;;;;65.67;42.00;;;;;;;-0.90;100.00;101088.53;5074419;28;20440;-88
2023/01/20 06:05:29;;;;;;;60.90;39.80;;;;;;;-0.85;100.00;101091.63;5089310;28;20016;-88
2023/01/20 06:07:56;;;;;;;60.67;40.30;;;;;;;-0.89;100.00;101089.34;5094777;28;20028;-89
2023/01/20 06:10:26;;;;;;;56.83;37.80;;;;;;;-0.84;100.00;101100.47;5094845;28;20047;-89
2023/01/20 06:12:53;;;;;;;58.00;37.70;;;;;;;-0.89;100.00;101092.84;5095442;28;20297;-88
2023/01/20 06:15:18;;;;;;;57.30;37.50;;;;;;;-0.89;100.00;101092.03;5099518;28;20285;-89
2023/01/20 06:17:44;;;;;;;56.37;37.27;;;;;;;-0.86;100.00;101095.28;5095140;28;20286;-89
2023/01/20 06:20:10;;;;;;;58.40;38.13;;;;;;;-0.88;100.00;101091.88;5087393;28;20036;-88
2023/01/20 06:22:35;;;;;;;55.13;36.87;;;;;;;-0.85;100.00;101101.44;5094110;28;20646;-89
2023/01/20 06:25:00;;;;;;;58.97;37.77;;;;;;;-0.85;100.00;101104.91;5088683;28;20292;-88
2023/01/20 06:27:26;;;;;;;57.03;38.13;;;;;;;-0.86;100.00;101108.56;5090060;28;20124;-84
2023/01/20 06:29:51;;;;;;;53.80;36.17;;;;;;;-0.81;100.00;101102.00;5091155;27;20039;-84
2023/01/20 06:32:16;;;;;;;55.27;36.87;;;;;;;-0.82;100.00;101109.13;5074904;28;20539;-85
2023/01/20 06:34:42;;;;;;;63.23;39.50;;;;;;;-0.78;100.00;101105.25;5092556;28;20040;-82
2023/01/20 06:37:07;;;;;;;55.80;36.67;;;;;;;-0.76;100.00;101107.75;5072101;28;20115;-82
2023/01/20 06:39:33;;;;;;;57.47;37.33;;;;;;;-0.73;100.00;101107.53;5091340;28;20119;-82
2023/01/20 06:41:59;;;;;;;56.23;38.13;;;;;;;-0.74;100.00;101106.66;5075004;28;20172;-81
2023/01/20 06:44:25;;;;;;;56.43;39.37;;;;;;;-0.78;100.00;101115.88;5086580;28;20101;-82
2023/01/20 06:46:51;;;;;;;55.40;36.10;;;;;;;-0.72;100.00;101109.19;5091385;28;20308;-82
2023/01/20 06:49:17;;;;;;;57.20;36.60;;;;;;;-0.72;100.00;101102.06;5091651;28;20290;-81
2023/01/20 06:51:42;;;;;;;54.20;36.10;;;;;;;-0.70;100.00;101113.41;5074623;28;20047;-82
2023/01/20 06:54:08;;;;;;;54.07;35.33;;;;;;;-0.63;100.00;101103.06;5088729;28;20293;-82
2023/01/20 06:56:34;;;;;;;54.23;36.40;;;;;;;-0.65;100.00;101105.03;5085976;28;20040;-82
2023/01/20 06:58:59;;;;;;;54.27;36.60;;;;;;;-0.61;100.00;101095.81;5070705;28;20050;-82
2023/01/20 07:01:28;;;;;;;54.83;35.43;;;;;;;-0.63;100.00;101100.41;5072115;28;20087;-81
2023/01/20 07:03:53;;;;;;;53.20;37.73;;;;;;;-0.64;100.00;101106.75;5086815;28;20543;-82
2023/01/20 07:06:23;;;;;;;52.43;37.47;;;;;;;-0.64;100.00;101103.22;5054738;28;20310;-81
2023/01/20 07:08:49;;;;;;;53.20;35.77;;;;;;;-0.62;100.00;101109.25;5089332;28;20032;-82
2023/01/20 07:11:15;;;;;;;53.60;34.80;;;;;;;-0.60;100.00;101113.47;5072585;28;20652;-81
2023/01/20 07:13:40;;;;;;;53.37;35.80;;;;;;;-0.56;100.00;101119.38;5089750;28;20031;-82
2023/01/20 07:16:07;;;;;;;50.33;35.03;;;;;;;-0.48;100.00;101122.19;5087956;28;20053;-82
2023/01/20 07:18:32;;;;;;;52.20;34.87;;;;;;;-0.46;100.00;101124.72;5089240;28;20602;-82
2023/01/20 07:20:59;;;;;;;51.13;35.03;;;;;;;-0.52;100.00;101120.78;5075442;28;20308;-82
2023/01/20 07:23:24;;;;;;;53.03;37.17;;;;;;;-0.47;100.00;101126.56;5091649;28;20288;-82
2023/01/20 07:25:57;;;;;;;54.17;36.83;;;;;;;-0.44;100.00;101134.28;5086387;28;20289;-82
2023/01/20 07:28:23;;;;;;;58.13;38.67;;;;;;;-0.43;100.00;101135.97;5089704;28;20074;-82
2023/01/20 07:30:48;;;;;;;59.17;38.67;;;;;;;-0.39;100.00;101137.38;5091148;28;20781;-82
2023/01/20 07:33:13;;;;;;;59.33;37.10;;;;;;;-0.38;100.00;101138.22;5088685;28;20040;-82
2023/01/20 07:35:39;;;;;;;54.50;36.00;;;;;;;-0.38;100.00;101140.88;5097523;28;20027;-88
2023/01/20 07:38:04;;;;;;;57.03;37.80;;;;;;;-0.36;100.00;101134.44;5070659;28;20115;-88
2023/01/20 07:40:29;;;;;;;54.87;36.20;;;;;;;-0.36;100.00;101137.09;5080074;28;20590;-88
2023/01/20 07:42:55;;;;;;;53.60;37.07;;;;;;;-0.30;100.00;101141.09;5073514;28;20085;-88
2023/01/20 07:45:20;;;;;;;54.50;37.93;;;;;;;-0.33;100.00;101146.66;5094959;28;20048;-89
2023/01/20 07:47:46;;;;;;;51.00;36.47;;;;;;;-0.28;100.00;101149.78;5088852;28;20036;-87
2023/01/20 07:50:11;;;;;;;50.50;36.50;;;;;;;-0.28;100.00;101155.09;5091198;28;20036;-88
2023/01/20 07:52:36;;;;;;;49.90;36.27;;;;;;;-0.33;100.00;101151.97;5092475;28;20073;-87
2023/01/20 07:55:02;;;;;;;51.13;35.50;;;;;;;-0.35;100.00;101151.28;5063486;28;20111;-88
2023/01/20 07:57:29;;;;;;;50.73;35.83;;;;;;;-0.30;100.00;101145.53;5088220;28;20037;-88
2023/01/20 07:59:54;;;;;;;48.80;35.43;;;;;;;-0.30;100.00;101151.75;5090980;28;20035;-88
2023/01/20 08:02:19;;;;;;;47.90;34.73;;;;;;;-0.35;100.00;101146.78;5089082;28;20281;-88
2023/01/20 08:04:45;;;;;;;52.87;36.23;;;;;;;-0.30;100.00;101162.38;5095902;28;20036;-89
2023/01/20 08:07:10;;;;;;;46.70;32.73;;;;;;;-0.33;100.00;101161.81;5096203;28;20036;-89
2023/01/20 08:09:35;;;;;;;48.10;34.37;;;;;;;-0.32;100.00;101159.00;5079234;28;20503;-89
2023/01/20 08:12:01;;;;;;;50.47;35.17;;;;;;;-0.35;100.00;101159.28;5075794;28;20094;-88
2023/01/20 08:14:26;;;;;;;54.07;37.10;;;;;;;-0.36;100.00;101158.41;5071901;28;20024;-88
2023/01/20 08:16:52;;;;;;;58.63;37.23;;;;;;;-0.37;100.00;101171.88;5094717;28;20024;-88
2023/01/20 08:19:18;;;;;;;58.07;38.57;;;;;;;-0.38;100.00;101162.19;5088336;28;20090;-88
2023/01/20 08:21:44;;;;;;;55.23;38.03;;;;;;;-0.42;100.00;101158.97;5060030;28;20496;-89
2023/01/20 08:24:09;;;;;;;55.27;37.97;;;;;;;-0.42;100.00;101163.41;5093353;28;22066;-89
2023/01/20 08:26:35;;;;;;;57.47;37.93;;;;;;;-0.42;100.00;101166.09;5087633;28;20082;-89
2023/01/20 08:29:07;;;;;;;56.43;38.73;;;;;;;-0.44;100.00;101168.03;5077452;28;20030;-90
2023/01/20 08:31:33;;;;;;;56.50;38.90;;;;;;;-0.43;100.00;101167.09;5088833;28;20378;-90
2023/01/20 08:33:58;;;;;;;61.67;40.33;;;;;;;-0.43;100.00;101170.56;5086541;28;20278;-82
2023/01/20 08:36:30;;;;;;;96.33;44.33;;;;;;;-0.40;100.00;101172.13;5090045;28;20549;-82
2023/01/20 08:38:58;;;;;;;65.43;41.33;;;;;;;-0.41;100.00;101179.28;5089316;28;20071;-82
2023/01/20 08:41:27;;;;;;;62.47;39.70;;;;;;;-0.39;100.00;101181.81;5079891;28;20384;-90
2023/01/20 08:43:53;;;;;;;57.23;38.97;;;;;;;-0.38;100.00;101179.03;5100643;28;20346;-90
2023/01/20 08:46:20;;;;;;;55.57;37.20;;;;;;;-0.41;100.00;101178.44;5083369;28;20385;-82
2023/01/20 08:48:46;;;;;;;53.20;35.90;;;;;;;-0.41;100.00;101186.41;5084296;28;20417;-82
2023/01/20 08:51:18;;;;;;;54.33;36.13;;;;;;;-0.43;100.00;101193.69;5089703;28;20373;-82
2023/01/20 08:53:44;;;;;;;50.73;35.47;;;;;;;-0.41;100.00;101181.09;5094225;28;20280;-82
2023/01/20 08:56:10;;;;;;;71.73;35.83;;;;;;;-0.41;100.00;101189.06;5090511;28;20287;-83
2023/01/20 08:58:36;;;;;;;52.37;36.27;;;;;;;-0.54;100.00;101186.63;5091795;28;20028;-82
2023/01/20 09:01:17;;;;;;;51.90;33.47;;;;;;;-0.54;100.00;101198.09;5094450;28;20288;-83
2023/01/20 09:03:43;;;;;;;47.13;33.33;;;;;;;-0.58;100.00;101186.03;5087078;28;20065;-83
2023/01/20 09:06:09;;;;;;;47.27;33.13;;;;;;;-0.56;100.00;101194.75;5091880;28;20286;-83
2023/01/20 09:08:36;;;;;;;44.50;32.03;;;;;;;-0.50;100.00;101193.38;5091205;28;20681;-83
2023/01/20 09:11:15;;;;;;;49.70;34.23;;;;;;;-0.57;100.00;101203.72;5100561;28;22105;-83
2023/01/20 09:13:40;;;;;;;48.07;33.20;;;;;;;-0.61;100.00;101194.28;5102727;28;20306;-83
2023/01/20 09:16:06;;;;;;;46.83;32.93;;;;;;;-0.55;100.00;101200.91;5095446;28;20290;-90
2023/01/20 09:18:33;;;;;;;47.77;32.30;;;;;;;-0.51;100.00;101197.84;5096175;28;20063;-91
2023/01/20 09:21:00;;;;;;;48.90;33.03;;;;;;;-0.46;100.00;101200.13;5097636;28;20024;-90
2023/01/20 09:23:27;;;;;;;45.40;32.13;;;;;;;-0.47;100.00;101200.25;5097274;28;20300;-91
2023/01/20 09:25:53;;;;;;;109.63;37.67;;;;;;;-0.42;100.00;101206.00;5077081;28;20301;-91
2023/01/20 09:28:19;;;;;;;49.90;33.67;;;;;;;-0.53;100.00;101188.28;5106515;28;20302;-91
2023/01/20 09:30:44;;;;;;;54.77;37.37;;;;;;;-0.57;100.00;101193.06;5101722;28;20281;-91
2023/01/20 09:33:11;;;;;;;53.93;34.20;;;;;;;-0.53;100.00;101190.97;5080443;28;20043;-91
2023/01/20 09:35:37;;;;;;;54.97;35.43;;;;;;;-0.58;100.00;101196.69;5079332;28;20034;-91
2023/01/20 09:44:27;;;;;;;53.87;35.97;;;;;;;-0.48;100.00;101187.91;5092536;28;20039;-91
2023/01/20 09:47:26;;;;;;;110.77;40.87;;;;;;;-0.44;100.00;101176.03;5088398;28;20863;-91
2023/01/20 09:53:05;;;;;;;52.33;34.93;;;;;;;-0.39;100.00;101192.47;5095069;28;20272;-91
2023/01/20 09:55:50;;;;;;;48.03;34.40;;;;;;;-0.37;100.00;101203.81;5095276;28;20278;-91
2023/01/20 09:58:28;;;;;;;46.50;33.40;;;;;;;-0.42;100.00;101198.91;5101836;28;20622;-91
2023/01/20 10:01:09;;;;;;;45.07;34.37;;;;;;;-0.43;100.00;101199.03;5096619;28;20281;-91
2023/01/20 10:03:58;;;;;;;45.27;33.17;;;;;;;-0.43;100.00;101199.03;5112650;27;20282;-91
2023/01/20 10:06:38;;;;;;;44.93;33.43;;;;;;;-0.41;100.00;101203.25;5099931;28;20324;-90
2023/01/20 10:09:16;;;;;;;42.10;31.90;;;;;;;-0.42;100.00;101201.56;5092040;28;20288;-89
2023/01/20 10:11:45;;;;;;;40.57;32.23;;;;;;;-0.43;100.00;101189.22;5089155;28;20626;-91
2023/01/20 10:14:34;;;;;;;41.50;30.70;;;;;;;-0.36;100.00;101193.03;5091671;28;20979;-91
2023/01/20 10:17:22;;;;;;;43.13;32.83;;;;;;;-0.32;100.00;101204.25;5086560;28;20800;-90
2023/01/20 10:20:02;;;;;;;41.53;30.80;;;;;;;-0.35;100.00;101197.38;5088507;28;20297;-92
2023/01/20 10:22:52;;;;;;;39.47;30.63;;;;;;;-0.33;100.00;101196.41;5088368;28;20316;-91
2023/01/20 10:25:23;;;;;;;40.90;30.80;;;;;;;-0.36;100.00;101205.50;5078546;28;20342;-91
2023/01/20 10:27:57;;;;;;;38.97;30.33;;;;;;;-0.38;100.00;101208.31;5091004;28;20278;-90
2023/01/20 10:30:29;;;;;;;39.43;29.93;;;;;;;-0.33;100.00;101215.06;5088990;28;20282;-90
2023/01/20 10:33:00;;;;;;;40.93;30.33;;;;;;;-0.29;100.00;101217.31;5087564;28;20297;-92
2023/01/20 10:35:27;;;;;;;44.87;33.23;;;;;;;-0.27;100.00;101210.03;5089078;28;20350;-90
2023/01/20 10:37:54;;;;;;;45.33;32.77;;;;;;;-0.26;100.00;101201.09;5089021;28;20297;-91
2023/01/20 10:40:44;;;;;;;41.37;31.23;;;;;;;-0.25;100.00;101213.41;5087811;28;20297;-90
2023/01/20 10:43:12;;;;;;;42.87;32.63;;;;;;;-0.24;100.00;101209.78;5087735;28;20285;-91
2023/01/20 10:46:03;;;;;;;42.60;31.33;;;;;;;-0.28;100.00;101205.69;5084187;28;20302;-89
2023/01/20 10:48:39;;;;;;;41.87;32.03;;;;;;;-0.29;100.00;101216.47;5087542;28;20388;-91
2023/01/20 10:51:14;;;;;;;40.87;31.37;;;;;;;-0.28;100.00;101212.84;5089567;28;20297;-90
2023/01/20 10:54:08;;;;;;;40.63;31.45;;;;;;;-0.29;100.00;101217.31;5088136;28;20338;-90
2023/01/20 10:56:52;;;;;;;41.70;32.03;;;;;;;-0.27;100.00;101220.69;5083772;28;20055;-89
2023/01/20 10:59:27;;;;;;;41.83;31.77;;;;;;;-0.27;100.00;101207.38;5086825;28;20812;-90
2023/01/20 11:01:57;;;;;;;44.00;33.17;;;;;;;-0.24;100.00;101211.59;5086905;28;20027;-90
2023/01/20 11:04:22;;;;;;;38.03;29.97;;;;;;;-0.28;100.00;101223.50;5086133;28;20317;-90
2023/01/20 11:06:53;;;;;;;35.43;29.10;;;;;;;-0.27;100.00;101225.16;5069397;28;20431;-90
2023/01/20 11:09:33;;;;;;;36.17;28.20;;;;;;;-0.29;100.00;101230.63;5086364;28;20090;-90
2023/01/20 11:12:02;;;;;;;35.43;28.70;;;;;;;-0.31;100.00;101227.25;5087467;28;20285;-90
2023/01/20 11:14:28;;;;;;;37.07;29.13;;;;;;;-0.31;100.00;101229.94;5069620;28;20388;-89
2023/01/20 11:17:00;;;;;;;35.67;29.07;;;;;;;-0.35;100.00;101229.34;5084348;28;20290;-90
2023/01/20 11:19:26;;;;;;;34.23;27.70;;;;;;;-0.37;100.00;101227.78;5084558;28;20298;-90